sensor_id;sensor_type;location;lat;lon;timestamp;P1;durP1;ratioP1;P2;durP2;ratioP2
8260;SDS011;64115;50.170;8.242;2023-03-17T00:00:49;3.33;;;2.97;;
8260;SDS011;64115;50.170;8.242;2023-03-17T00:03:18;3.40;;;3.10;;
8260;SDS011;64115;50.170;8.242;2023-03-17T00:05:48;3.50;;;3.20;;
8260;SDS011;64115;50.170;8.242;2023-03-17T00:08:19;5.03;;;3.13;;
8260;SDS011;64115;50.170;8.242;2023-03-17T00:10:48;3.10;;;2.90;;
8260;SDS011;64115;50.170;8.242;2023-03-17T00:13:15;2.80;;;2.60;;
8260;SDS011;64115;50.170;8.242;2023-03-17T00:15:42;3.60;;;3.30;;
8260;SDS011;64115;50.170;8.242;2023-03-17T00:18:10;3.70;;;3.40;;
8260;SDS011;64115;50.170;8.242;2023-03-17T00:20:41;3.83;;;3.00;;
8260;SDS011;64115;50.170;8.242;2023-03-17T00:23:12;3.70;;;3.40;;
8260;SDS011;64115;50.170;8.242;2023-03-17T00:25:42;3.70;;;3.40;;
8260;SDS011;64115;50.170;8.242;2023-03-17T00:28:12;4.40;;;3.50;;
8260;SDS011;64115;50.170;8.242;2023-03-17T00:30:42;3.90;;;3.50;;
8260;SDS011;64115;50.170;8.242;2023-03-17T00:33:10;3.90;;;3.50;;
8260;SDS011;64115;50.170;8.242;2023-03-17T00:35:37;3.40;;;3.10;;
8260;SDS011;64115;50.170;8.242;2023-03-17T00:38:05;3.90;;;3.40;;
8260;SDS011;64115;50.170;8.242;2023-03-17T00:40:37;4.33;;;3.30;;
8260;SDS011;64115;50.170;8.242;2023-03-17T00:43:04;4.37;;;3.50;;
8260;SDS011;64115;50.170;8.242;2023-03-17T00:45:32;4.37;;;3.17;;
8260;SDS011;64115;50.170;8.242;2023-03-17T00:47:59;3.83;;;3.43;;
8260;SDS011;64115;50.170;8.242;2023-03-17T00:50:27;3.90;;;3.37;;
8260;SDS011;64115;50.170;8.242;2023-03-17T00:52:55;3.83;;;3.53;;
8260;SDS011;64115;50.170;8.242;2023-03-17T00:55:23;3.90;;;3.40;;
8260;SDS011;64115;50.170;8.242;2023-03-17T00:57:53;3.93;;;3.10;;
8260;SDS011;64115;50.170;8.242;2023-03-17T01:00:21;3.83;;;3.30;;
8260;SDS011;64115;50.170;8.242;2023-03-17T01:02:50;3.50;;;3.20;;
8260;SDS011;64115;50.170;8.242;2023-03-17T01:05:18;4.30;;;3.80;;
8260;SDS011;64115;50.170;8.242;2023-03-17T01:07:46;4.77;;;3.97;;
8260;SDS011;64115;50.170;8.242;2023-03-17T01:10:17;4.40;;;3.93;;
8260;SDS011;64115;50.170;8.242;2023-03-17T01:12:48;4.00;;;3.70;;
8260;SDS011;64115;50.170;8.242;2023-03-17T01:15:17;4.87;;;4.17;;
8260;SDS011;64115;50.170;8.242;2023-03-17T01:17:45;4.73;;;4.13;;
8260;SDS011;64115;50.170;8.242;2023-03-17T01:20:14;4.87;;;3.97;;
8260;SDS011;64115;50.170;8.242;2023-03-17T01:22:43;6.30;;;4.60;;
8260;SDS011;64115;50.170;8.242;2023-03-17T01:25:10;6.17;;;4.63;;
8260;SDS011;64115;50.170;8.242;2023-03-17T01:27:38;4.53;;;4.10;;
8260;SDS011;64115;50.170;8.242;2023-03-17T01:30:07;4.23;;;3.90;;
8260;SDS011;64115;50.170;8.242;2023-03-17T01:32:48;4.50;;;3.50;;
8260;SDS011;64115;50.170;8.242;2023-03-17T01:35:15;3.57;;;3.27;;
8260;SDS011;64115;50.170;8.242;2023-03-17T01:37:44;3.50;;;3.10;;
8260;SDS011;64115;50.170;8.242;2023-03-17T01:40:13;3.40;;;3.10;;
8260;SDS011;64115;50.170;8.242;2023-03-17T01:42:43;3.43;;;3.23;;
8260;SDS011;64115;50.170;8.242;2023-03-17T01:48:12;3.87;;;3.57;;
8260;SDS011;64115;50.170;8.242;2023-03-17T01:50:41;4.37;;;3.23;;
8260;SDS011;64115;50.170;8.242;2023-03-17T01:53:10;4.27;;;3.20;;
8260;SDS011;64115;50.170;8.242;2023-03-17T01:55:37;3.47;;;3.17;;
8260;SDS011;64115;50.170;8.242;2023-03-17T01:58:05;4.97;;;3.77;;
8260;SDS011;64115;50.170;8.242;2023-03-17T02:00:33;4.47;;;3.47;;
8260;SDS011;64115;50.170;8.242;2023-03-17T02:03:00;4.50;;;4.10;;
8260;SDS011;64115;50.170;8.242;2023-03-17T02:05:29;5.37;;;3.70;;
8260;SDS011;64115;50.170;8.242;2023-03-17T02:07:57;5.40;;;3.57;;
8260;SDS011;64115;50.170;8.242;2023-03-17T02:10:25;4.03;;;3.73;;
8260;SDS011;64115;50.170;8.242;2023-03-17T02:12:54;3.80;;;3.50;;
8260;SDS011;64115;50.170;8.242;2023-03-17T02:15:34;4.87;;;3.70;;
8260;SDS011;64115;50.170;8.242;2023-03-17T02:18:04;4.63;;;3.40;;
8260;SDS011;64115;50.170;8.242;2023-03-17T02:23:33;3.87;;;3.23;;
8260;SDS011;64115;50.170;8.242;2023-03-17T02:26:00;4.57;;;3.73;;
8260;SDS011;64115;50.170;8.242;2023-03-17T02:28:29;3.53;;;3.23;;
8260;SDS011;64115;50.170;8.242;2023-03-17T02:30:56;4.33;;;3.90;;
8260;SDS011;64115;50.170;8.242;2023-03-17T02:33:23;5.17;;;3.93;;
8260;SDS011;64115;50.170;8.242;2023-03-17T02:35:51;3.67;;;3.37;;
8260;SDS011;64115;50.170;8.242;2023-03-17T02:38:18;4.03;;;3.60;;
8260;SDS011;64115;50.170;8.242;2023-03-17T02:40:47;3.83;;;3.50;;
8260;SDS011;64115;50.170;8.242;2023-03-17T02:43:14;4.87;;;3.93;;
8260;SDS011;64115;50.170;8.242;2023-03-17T02:45:41;3.83;;;3.53;;
8260;SDS011;64115;50.170;8.242;2023-03-17T02:48:08;4.30;;;3.90;;
8260;SDS011;64115;50.170;8.242;2023-03-17T02:50:36;3.97;;;3.67;;
8260;SDS011;64115;50.170;8.242;2023-03-17T02:53:03;4.40;;;3.63;;
8260;SDS011;64115;50.170;8.242;2023-03-17T02:55:30;3.93;;;3.47;;
8260;SDS011;64115;50.170;8.242;2023-03-17T02:57:59;3.90;;;3.60;;
8260;SDS011;64115;50.170;8.242;2023-03-17T03:00:27;4.40;;;4.00;;
8260;SDS011;64115;50.170;8.242;2023-03-17T03:02:55;4.30;;;3.90;;
8260;SDS011;64115;50.170;8.242;2023-03-17T03:05:22;4.97;;;3.87;;
8260;SDS011;64115;50.170;8.242;2023-03-17T03:07:49;4.03;;;3.70;;
8260;SDS011;64115;50.170;8.242;2023-03-17T03:10:16;3.83;;;3.53;;
8260;SDS011;64115;50.170;8.242;2023-03-17T03:12:44;4.40;;;4.00;;
8260;SDS011;64115;50.170;8.242;2023-03-17T03:15:12;4.03;;;3.70;;
8260;SDS011;64115;50.170;8.242;2023-03-17T03:17:39;3.73;;;3.37;;
8260;SDS011;64115;50.170;8.242;2023-03-17T03:20:07;4.33;;;3.20;;
8260;SDS011;64115;50.170;8.242;2023-03-17T03:22:37;4.20;;;3.50;;
8260;SDS011;64115;50.170;8.242;2023-03-17T03:25:05;4.43;;;3.17;;
8260;SDS011;64115;50.170;8.242;2023-03-17T03:27:33;3.43;;;3.13;;
8260;SDS011;64115;50.170;8.242;2023-03-17T03:30:00;3.60;;;3.30;;
8260;SDS011;64115;50.170;8.242;2023-03-17T03:32:29;3.30;;;3.00;;
8260;SDS011;64115;50.170;8.242;2023-03-17T03:34:56;3.47;;;3.17;;
8260;SDS011;64115;50.170;8.242;2023-03-17T03:37:23;3.07;;;2.77;;
8260;SDS011;64115;50.170;8.242;2023-03-17T03:39:50;3.17;;;2.87;;
8260;SDS011;64115;50.170;8.242;2023-03-17T03:42:17;3.23;;;2.87;;
8260;SDS011;64115;50.170;8.242;2023-03-17T03:44:44;3.30;;;3.00;;
8260;SDS011;64115;50.170;8.242;2023-03-17T03:47:11;3.17;;;2.90;;
8260;SDS011;64115;50.170;8.242;2023-03-17T03:49:40;3.83;;;3.20;;
8260;SDS011;64115;50.170;8.242;2023-03-17T03:52:07;3.60;;;3.30;;
8260;SDS011;64115;50.170;8.242;2023-03-17T03:54:34;4.37;;;2.90;;
8260;SDS011;64115;50.170;8.242;2023-03-17T03:57:00;3.57;;;3.00;;
8260;SDS011;64115;50.170;8.242;2023-03-17T03:59:27;3.57;;;2.83;;
8260;SDS011;64115;50.170;8.242;2023-03-17T04:01:54;2.70;;;2.50;;
8260;SDS011;64115;50.170;8.242;2023-03-17T04:04:21;3.43;;;3.13;;
8260;SDS011;64115;50.170;8.242;2023-03-17T04:06:50;3.33;;;2.90;;
8260;SDS011;64115;50.170;8.242;2023-03-17T04:09:17;3.00;;;2.80;;
8260;SDS011;64115;50.170;8.242;2023-03-17T04:11:44;3.30;;;3.00;;
8260;SDS011;64115;50.170;8.242;2023-03-17T04:14:11;3.83;;;2.90;;
8260;SDS011;64115;50.170;8.242;2023-03-17T04:16:38;2.93;;;2.73;;
8260;SDS011;64115;50.170;8.242;2023-03-17T04:19:05;3.40;;;3.10;;
8260;SDS011;64115;50.170;8.242;2023-03-17T04:21:33;3.13;;;2.83;;
8260;SDS011;64115;50.170;8.242;2023-03-17T04:24:01;3.27;;;2.97;;
8260;SDS011;64115;50.170;8.242;2023-03-17T04:26:30;4.33;;;3.27;;
8260;SDS011;64115;50.170;8.242;2023-03-17T04:28:57;3.50;;;2.80;;
8260;SDS011;64115;50.170;8.242;2023-03-17T04:31:24;5.33;;;3.50;;
8260;SDS011;64115;50.170;8.242;2023-03-17T04:33:51;3.20;;;2.90;;
8260;SDS011;64115;50.170;8.242;2023-03-17T04:36:19;3.77;;;2.97;;
8260;SDS011;64115;50.170;8.242;2023-03-17T04:38:48;4.23;;;2.93;;
8260;SDS011;64115;50.170;8.242;2023-03-17T04:41:17;3.40;;;3.10;;
8260;SDS011;64115;50.170;8.242;2023-03-17T04:43:44;3.17;;;2.83;;
8260;SDS011;64115;50.170;8.242;2023-03-17T04:46:11;3.97;;;2.90;;
8260;SDS011;64115;50.170;8.242;2023-03-17T04:48:38;3.47;;;3.00;;
8260;SDS011;64115;50.170;8.242;2023-03-17T04:51:05;3.47;;;3.17;;
8260;SDS011;64115;50.170;8.242;2023-03-17T04:53:32;3.00;;;2.80;;
8260;SDS011;64115;50.170;8.242;2023-03-17T04:55:59;3.03;;;2.83;;
8260;SDS011;64115;50.170;8.242;2023-03-17T04:58:27;3.50;;;3.20;;
8260;SDS011;64115;50.170;8.242;2023-03-17T05:00:54;3.80;;;2.63;;
8260;SDS011;64115;50.170;8.242;2023-03-17T05:03:21;3.17;;;2.87;;
8260;SDS011;64115;50.170;8.242;2023-03-17T05:05:49;3.43;;;3.10;;
8260;SDS011;64115;50.170;8.242;2023-03-17T05:08:16;3.20;;;3.00;;
8260;SDS011;64115;50.170;8.242;2023-03-17T05:10:44;4.00;;;2.87;;
8260;SDS011;64115;50.170;8.242;2023-03-17T05:13:11;3.73;;;3.00;;
8260;SDS011;64115;50.170;8.242;2023-03-17T05:15:42;3.07;;;2.80;;
8260;SDS011;64115;50.170;8.242;2023-03-17T05:18:11;3.20;;;2.90;;
8260;SDS011;64115;50.170;8.242;2023-03-17T05:20:45;3.10;;;2.90;;
8260;SDS011;64115;50.170;8.242;2023-03-17T05:23:12;3.63;;;3.30;;
8260;SDS011;64115;50.170;8.242;2023-03-17T05:25:40;3.07;;;2.70;;
8260;SDS011;64115;50.170;8.242;2023-03-17T05:28:07;2.97;;;2.77;;
8260;SDS011;64115;50.170;8.242;2023-03-17T05:30:35;3.37;;;3.07;;
8260;SDS011;64115;50.170;8.242;2023-03-17T05:33:04;3.93;;;2.70;;
8260;SDS011;64115;50.170;8.242;2023-03-17T05:35:31;3.10;;;2.80;;
8260;SDS011;64115;50.170;8.242;2023-03-17T05:37:59;3.20;;;3.00;;
8260;SDS011;64115;50.170;8.242;2023-03-17T05:40:26;3.50;;;3.20;;
8260;SDS011;64115;50.170;8.242;2023-03-17T05:42:53;3.87;;;3.20;;
8260;SDS011;64115;50.170;8.242;2023-03-17T05:45:20;3.20;;;2.97;;
8260;SDS011;64115;50.170;8.242;2023-03-17T05:47:47;3.50;;;3.20;;
8260;SDS011;64115;50.170;8.242;2023-03-17T05:50:16;3.40;;;3.00;;
8260;SDS011;64115;50.170;8.242;2023-03-17T05:52:43;3.83;;;2.97;;
8260;SDS011;64115;50.170;8.242;2023-03-17T05:55:11;3.93;;;3.43;;
8260;SDS011;64115;50.170;8.242;2023-03-17T05:57:38;3.40;;;3.10;;
8260;SDS011;64115;50.170;8.242;2023-03-17T06:00:06;4.50;;;3.20;;
8260;SDS011;64115;50.170;8.242;2023-03-17T06:02:34;4.40;;;2.90;;
8260;SDS011;64115;50.170;8.242;2023-03-17T06:05:01;3.47;;;3.17;;
8260;SDS011;64115;50.170;8.242;2023-03-17T06:07:29;3.57;;;3.27;;
8260;SDS011;64115;50.170;8.242;2023-03-17T06:09:57;3.23;;;3.03;;
8260;SDS011;64115;50.170;8.242;2023-03-17T06:12:24;4.97;;;3.20;;
8260;SDS011;64115;50.170;8.242;2023-03-17T06:14:51;3.43;;;3.13;;
8260;SDS011;64115;50.170;8.242;2023-03-17T06:17:18;4.07;;;2.83;;
8260;SDS011;64115;50.170;8.242;2023-03-17T06:19:45;3.40;;;3.10;;
8260;SDS011;64115;50.170;8.242;2023-03-17T06:22:12;3.40;;;3.10;;
8260;SDS011;64115;50.170;8.242;2023-03-17T06:24:41;3.37;;;3.07;;
8260;SDS011;64115;50.170;8.242;2023-03-17T06:27:08;3.37;;;3.07;;
8260;SDS011;64115;50.170;8.242;2023-03-17T06:29:37;3.00;;;2.80;;
8260;SDS011;64115;50.170;8.242;2023-03-17T06:32:04;2.90;;;2.70;;
8260;SDS011;64115;50.170;8.242;2023-03-17T06:34:33;3.13;;;2.93;;
8260;SDS011;64115;50.170;8.242;2023-03-17T06:37:00;3.37;;;3.07;;
8260;SDS011;64115;50.170;8.242;2023-03-17T06:39:27;3.13;;;2.93;;
8260;SDS011;64115;50.170;8.242;2023-03-17T06:41:55;2.80;;;2.60;;
8260;SDS011;64115;50.170;8.242;2023-03-17T06:44:22;4.80;;;3.00;;
8260;SDS011;64115;50.170;8.242;2023-03-17T06:46:51;3.23;;;2.97;;
8260;SDS011;64115;50.170;8.242;2023-03-17T06:49:18;3.07;;;2.83;;
8260;SDS011;64115;50.170;8.242;2023-03-17T06:51:45;4.07;;;3.10;;
8260;SDS011;64115;50.170;8.242;2023-03-17T06:54:12;3.50;;;3.20;;
8260;SDS011;64115;50.170;8.242;2023-03-17T06:56:40;3.17;;;2.90;;
8260;SDS011;64115;50.170;8.242;2023-03-17T06:59:11;3.17;;;2.97;;
8260;SDS011;64115;50.170;8.242;2023-03-17T07:01:38;3.50;;;3.20;;
8260;SDS011;64115;50.170;8.242;2023-03-17T07:04:05;3.60;;;3.30;;
8260;SDS011;64115;50.170;8.242;2023-03-17T07:06:31;3.50;;;3.20;;
8260;SDS011;64115;50.170;8.242;2023-03-17T07:08:59;3.90;;;3.57;;
8260;SDS011;64115;50.170;8.242;2023-03-17T07:11:26;3.60;;;3.30;;
8260;SDS011;64115;50.170;8.242;2023-03-17T07:13:54;3.73;;;3.37;;
8260;SDS011;64115;50.170;8.242;2023-03-17T07:16:24;4.47;;;3.50;;
8260;SDS011;64115;50.170;8.242;2023-03-17T07:18:51;3.33;;;3.03;;
8260;SDS011;64115;50.170;8.242;2023-03-17T07:21:19;3.43;;;3.13;;
8260;SDS011;64115;50.170;8.242;2023-03-17T07:23:46;3.47;;;3.13;;
8260;SDS011;64115;50.170;8.242;2023-03-17T07:26:13;7.77;;;3.30;;
8260;SDS011;64115;50.170;8.242;2023-03-17T07:28:40;3.53;;;3.20;;
8260;SDS011;64115;50.170;8.242;2023-03-17T07:31:07;3.37;;;3.17;;
8260;SDS011;64115;50.170;8.242;2023-03-17T07:33:39;3.97;;;3.30;;
8260;SDS011;64115;50.170;8.242;2023-03-17T07:36:07;4.90;;;3.10;;
8260;SDS011;64115;50.170;8.242;2023-03-17T07:38:35;3.30;;;2.97;;
8260;SDS011;64115;50.170;8.242;2023-03-17T07:41:02;3.27;;;3.07;;
8260;SDS011;64115;50.170;8.242;2023-03-17T07:43:34;3.47;;;3.17;;
8260;SDS011;64115;50.170;8.242;2023-03-17T07:46:02;3.27;;;2.97;;
8260;SDS011;64115;50.170;8.242;2023-03-17T07:48:31;3.10;;;2.83;;
8260;SDS011;64115;50.170;8.242;2023-03-17T07:51:02;3.53;;;3.20;;
8260;SDS011;64115;50.170;8.242;2023-03-17T07:53:38;3.57;;;3.27;;
8260;SDS011;64115;50.170;8.242;2023-03-17T07:56:06;3.00;;;2.70;;
8260;SDS011;64115;50.170;8.242;2023-03-17T07:58:34;3.33;;;2.90;;
8260;SDS011;64115;50.170;8.242;2023-03-17T08:01:01;3.27;;;2.97;;
8260;SDS011;64115;50.170;8.242;2023-03-17T08:03:29;3.00;;;2.70;;
8260;SDS011;64115;50.170;8.242;2023-03-17T08:05:56;4.40;;;3.00;;
8260;SDS011;64115;50.170;8.242;2023-03-17T08:08:26;3.37;;;3.00;;
8260;SDS011;64115;50.170;8.242;2023-03-17T08:10:57;3.00;;;2.73;;
8260;SDS011;64115;50.170;8.242;2023-03-17T08:13:27;4.47;;;2.70;;
8260;SDS011;64115;50.170;8.242;2023-03-17T08:15:55;3.03;;;2.83;;
8260;SDS011;64115;50.170;8.242;2023-03-17T08:18:22;3.03;;;2.77;;
8260;SDS011;64115;50.170;8.242;2023-03-17T08:20:49;3.20;;;2.90;;
8260;SDS011;64115;50.170;8.242;2023-03-17T08:23:16;3.30;;;2.83;;
8260;SDS011;64115;50.170;8.242;2023-03-17T08:25:45;3.70;;;2.70;;
8260;SDS011;64115;50.170;8.242;2023-03-17T08:28:13;4.40;;;2.77;;
8260;SDS011;64115;50.170;8.242;2023-03-17T08:30:41;3.73;;;3.23;;
8260;SDS011;64115;50.170;8.242;2023-03-17T08:33:08;4.90;;;3.07;;
8260;SDS011;64115;50.170;8.242;2023-03-17T08:35:39;2.97;;;2.70;;
8260;SDS011;64115;50.170;8.242;2023-03-17T08:38:06;3.57;;;3.00;;
8260;SDS011;64115;50.170;8.242;2023-03-17T08:40:33;3.30;;;3.00;;
8260;SDS011;64115;50.170;8.242;2023-03-17T08:43:03;4.17;;;3.30;;
8260;SDS011;64115;50.170;8.242;2023-03-17T08:45:30;6.83;;;3.13;;
8260;SDS011;64115;50.170;8.242;2023-03-17T08:47:57;4.00;;;2.87;;
8260;SDS011;64115;50.170;8.242;2023-03-17T08:50:25;4.47;;;2.93;;
8260;SDS011;64115;50.170;8.242;2023-03-17T08:52:52;4.13;;;3.20;;
8260;SDS011;64115;50.170;8.242;2023-03-17T08:55:19;4.80;;;3.50;;
8260;SDS011;64115;50.170;8.242;2023-03-17T08:57:46;4.80;;;3.47;;
8260;SDS011;64115;50.170;8.242;2023-03-17T09:00:16;5.10;;;3.63;;
8260;SDS011;64115;50.170;8.242;2023-03-17T09:02:45;5.07;;;3.47;;
8260;SDS011;64115;50.170;8.242;2023-03-17T09:05:14;7.73;;;3.47;;
8260;SDS011;64115;50.170;8.242;2023-03-17T09:07:42;3.90;;;3.00;;
8260;SDS011;64115;50.170;8.242;2023-03-17T09:10:10;5.80;;;3.10;;
8260;SDS011;64115;50.170;8.242;2023-03-17T09:12:38;5.10;;;3.00;;
8260;SDS011;64115;50.170;8.242;2023-03-17T09:15:07;4.73;;;3.20;;
8260;SDS011;64115;50.170;8.242;2023-03-17T09:17:37;3.73;;;2.93;;
8260;SDS011;64115;50.170;8.242;2023-03-17T09:20:05;3.13;;;2.83;;
8260;SDS011;64115;50.170;8.242;2023-03-17T09:22:33;3.53;;;3.10;;
8260;SDS011;64115;50.170;8.242;2023-03-17T09:25:00;5.23;;;3.00;;
8260;SDS011;64115;50.170;8.242;2023-03-17T09:27:28;3.50;;;3.20;;
8260;SDS011;64115;50.170;8.242;2023-03-17T09:29:55;4.03;;;2.97;;
8260;SDS011;64115;50.170;8.242;2023-03-17T09:32:22;2.90;;;2.70;;
8260;SDS011;64115;50.170;8.242;2023-03-17T09:34:51;5.17;;;3.03;;
8260;SDS011;64115;50.170;8.242;2023-03-17T09:37:18;2.90;;;2.70;;
8260;SDS011;64115;50.170;8.242;2023-03-17T09:39:45;4.33;;;2.73;;
8260;SDS011;64115;50.170;8.242;2023-03-17T09:42:16;2.87;;;2.63;;
8260;SDS011;64115;50.170;8.242;2023-03-17T09:44:54;3.10;;;2.90;;
8260;SDS011;64115;50.170;8.242;2023-03-17T09:47:36;3.73;;;2.50;;
8260;SDS011;64115;50.170;8.242;2023-03-17T09:50:23;2.63;;;2.43;;
8260;SDS011;64115;50.170;8.242;2023-03-17T09:52:53;3.47;;;2.80;;
8260;SDS011;64115;50.170;8.242;2023-03-17T09:55:24;3.73;;;2.90;;
8260;SDS011;64115;50.170;8.242;2023-03-17T09:57:53;4.03;;;2.70;;
8260;SDS011;64115;50.170;8.242;2023-03-17T10:00:23;2.90;;;2.60;;
8260;SDS011;64115;50.170;8.242;2023-03-17T10:02:53;4.50;;;2.87;;
8260;SDS011;64115;50.170;8.242;2023-03-17T10:05:22;3.37;;;3.10;;
8260;SDS011;64115;50.170;8.242;2023-03-17T10:07:54;3.77;;;3.03;;
8260;SDS011;64115;50.170;8.242;2023-03-17T10:10:28;3.33;;;2.90;;
8260;SDS011;64115;50.170;8.242;2023-03-17T10:13:08;4.30;;;2.77;;
8260;SDS011;64115;50.170;8.242;2023-03-17T10:15:43;3.10;;;2.90;;
8260;SDS011;64115;50.170;8.242;2023-03-17T10:18:14;3.57;;;3.20;;
8260;SDS011;64115;50.170;8.242;2023-03-17T10:20:45;3.37;;;2.50;;
8260;SDS011;64115;50.170;8.242;2023-03-17T10:23:17;3.57;;;3.10;;
8260;SDS011;64115;50.170;8.242;2023-03-17T10:25:47;3.40;;;3.10;;
8260;SDS011;64115;50.170;8.242;2023-03-17T10:28:22;3.30;;;3.00;;
8260;SDS011;64115;50.170;8.242;2023-03-17T10:30:53;3.70;;;3.13;;
8260;SDS011;64115;50.170;8.242;2023-03-17T10:33:26;4.20;;;3.80;;
8260;SDS011;64115;50.170;8.242;2023-03-17T10:35:55;4.03;;;3.40;;
8260;SDS011;64115;50.170;8.242;2023-03-17T10:38:33;4.00;;;3.60;;
8260;SDS011;64115;50.170;8.242;2023-03-17T10:41:01;4.93;;;3.53;;
8260;SDS011;64115;50.170;8.242;2023-03-17T10:43:34;4.87;;;2.90;;
8260;SDS011;64115;50.170;8.242;2023-03-17T10:46:05;3.20;;;2.90;;
8260;SDS011;64115;50.170;8.242;2023-03-17T10:48:42;3.87;;;3.00;;
8260;SDS011;64115;50.170;8.242;2023-03-17T10:51:21;3.10;;;2.80;;
8260;SDS011;64115;50.170;8.242;2023-03-17T10:53:54;4.87;;;2.83;;
8260;SDS011;64115;50.170;8.242;2023-03-17T10:56:25;5.57;;;3.10;;
8260;SDS011;64115;50.170;8.242;2023-03-17T10:58:54;3.00;;;2.70;;
8260;SDS011;64115;50.170;8.242;2023-03-17T11:01:27;3.27;;;2.63;;
8260;SDS011;64115;50.170;8.242;2023-03-17T11:03:55;5.00;;;2.93;;
8260;SDS011;64115;50.170;8.242;2023-03-17T11:06:31;3.73;;;3.17;;
8260;SDS011;64115;50.170;8.242;2023-03-17T11:09:05;3.27;;;2.90;;
8260;SDS011;64115;50.170;8.242;2023-03-17T11:11:41;2.60;;;2.40;;
8260;SDS011;64115;50.170;8.242;2023-03-17T11:14:11;4.60;;;2.93;;
8260;SDS011;64115;50.170;8.242;2023-03-17T11:16:44;2.70;;;2.50;;
8260;SDS011;64115;50.170;8.242;2023-03-17T11:19:18;2.90;;;2.70;;
8260;SDS011;64115;50.170;8.242;2023-03-17T11:21:53;2.97;;;2.67;;
8260;SDS011;64115;50.170;8.242;2023-03-17T11:24:26;4.30;;;2.80;;
8260;SDS011;64115;50.170;8.242;2023-03-17T11:26:57;2.90;;;2.70;;
8260;SDS011;64115;50.170;8.242;2023-03-17T11:29:30;4.30;;;2.70;;
8260;SDS011;64115;50.170;8.242;2023-03-17T11:32:09;3.47;;;2.90;;
8260;SDS011;64115;50.170;8.242;2023-03-17T11:34:49;2.97;;;2.67;;
8260;SDS011;64115;50.170;8.242;2023-03-17T11:37:31;3.40;;;3.10;;
8260;SDS011;64115;50.170;8.242;2023-03-17T11:40:12;3.83;;;2.80;;
8260;SDS011;64115;50.170;8.242;2023-03-17T11:42:46;4.47;;;3.27;;
8260;SDS011;64115;50.170;8.242;2023-03-17T11:45:22;2.80;;;2.60;;
8260;SDS011;64115;50.170;8.242;2023-03-17T11:47:56;5.67;;;3.00;;
8260;SDS011;64115;50.170;8.242;2023-03-17T11:50:37;3.43;;;3.03;;
8260;SDS011;64115;50.170;8.242;2023-03-17T11:56:11;3.50;;;2.90;;
8260;SDS011;64115;50.170;8.242;2023-03-17T11:58:44;4.17;;;3.43;;
8260;SDS011;64115;50.170;8.242;2023-03-17T12:01:16;3.70;;;3.40;;
8260;SDS011;64115;50.170;8.242;2023-03-17T12:03:48;4.43;;;3.67;;
8260;SDS011;64115;50.170;8.242;2023-03-17T12:06:20;6.10;;;3.37;;
8260;SDS011;64115;50.170;8.242;2023-03-17T12:08:56;3.87;;;3.43;;
8260;SDS011;64115;50.170;8.242;2023-03-17T12:11:28;3.77;;;3.47;;
8260;SDS011;64115;50.170;8.242;2023-03-17T12:14:01;3.37;;;3.10;;
8260;SDS011;64115;50.170;8.242;2023-03-17T12:16:32;5.63;;;3.10;;
8260;SDS011;64115;50.170;8.242;2023-03-17T12:19:06;4.63;;;3.13;;
8260;SDS011;64115;50.170;8.242;2023-03-17T12:21:41;4.30;;;3.43;;
8260;SDS011;64115;50.170;8.242;2023-03-17T12:24:16;3.87;;;2.90;;
8260;SDS011;64115;50.170;8.242;2023-03-17T12:26:48;3.67;;;3.37;;
8260;SDS011;64115;50.170;8.242;2023-03-17T12:29:22;4.23;;;3.10;;
8260;SDS011;64115;50.170;8.242;2023-03-17T12:31:55;3.63;;;3.20;;
8260;SDS011;64115;50.170;8.242;2023-03-17T12:34:27;4.57;;;3.40;;
8260;SDS011;64115;50.170;8.242;2023-03-17T12:36:59;3.53;;;3.23;;
8260;SDS011;64115;50.170;8.242;2023-03-17T12:39:29;3.70;;;3.40;;
8260;SDS011;64115;50.170;8.242;2023-03-17T12:42:01;4.97;;;3.37;;
8260;SDS011;64115;50.170;8.242;2023-03-17T12:44:46;4.73;;;3.40;;
8260;SDS011;64115;50.170;8.242;2023-03-17T12:47:40;4.60;;;3.43;;
8260;SDS011;64115;50.170;8.242;2023-03-17T12:53:23;3.70;;;3.30;;
8260;SDS011;64115;50.170;8.242;2023-03-17T12:55:54;4.90;;;3.37;;
8260;SDS011;64115;50.170;8.242;2023-03-17T12:58:26;4.30;;;3.37;;
8260;SDS011;64115;50.170;8.242;2023-03-17T13:01:04;5.70;;;3.53;;
8260;SDS011;64115;50.170;8.242;2023-03-17T13:03:35;3.60;;;3.30;;
8260;SDS011;64115;50.170;8.242;2023-03-17T13:06:14;3.70;;;3.40;;
8260;SDS011;64115;50.170;8.242;2023-03-17T13:08:45;3.40;;;3.10;;
8260;SDS011;64115;50.170;8.242;2023-03-17T13:11:24;3.80;;;3.50;;
8260;SDS011;64115;50.170;8.242;2023-03-17T13:14:05;3.63;;;3.20;;
8260;SDS011;64115;50.170;8.242;2023-03-17T13:16:40;3.80;;;3.50;;
8260;SDS011;64115;50.170;8.242;2023-03-17T13:19:14;4.33;;;3.90;;
8260;SDS011;64115;50.170;8.242;2023-03-17T13:21:44;4.70;;;3.73;;
8260;SDS011;64115;50.170;8.242;2023-03-17T13:24:34;4.50;;;4.10;;
8260;SDS011;64115;50.170;8.242;2023-03-17T13:27:12;4.70;;;4.20;;
8260;SDS011;64115;50.170;8.242;2023-03-17T13:33:16;5.17;;;4.40;;
8260;SDS011;64115;50.170;8.242;2023-03-17T13:35:51;5.57;;;4.50;;
8260;SDS011;64115;50.170;8.242;2023-03-17T13:38:32;6.43;;;5.00;;
8260;SDS011;64115;50.170;8.242;2023-03-17T13:41:14;5.10;;;4.60;;
8260;SDS011;64115;50.170;8.242;2023-03-17T13:44:02;4.97;;;4.57;;
8260;SDS011;64115;50.170;8.242;2023-03-17T13:46:41;6.57;;;4.70;;
8260;SDS011;64115;50.170;8.242;2023-03-17T13:49:15;6.60;;;5.13;;
8260;SDS011;64115;50.170;8.242;2023-03-17T13:51:52;5.20;;;4.50;;
8260;SDS011;64115;50.170;8.242;2023-03-17T13:54:28;8.00;;;4.43;;
8260;SDS011;64115;50.170;8.242;2023-03-17T13:56:57;5.57;;;4.90;;
8260;SDS011;64115;50.170;8.242;2023-03-17T14:02:46;5.20;;;4.70;;
8260;SDS011;64115;50.170;8.242;2023-03-17T14:05:18;5.57;;;4.27;;
8260;SDS011;64115;50.170;8.242;2023-03-17T14:07:51;5.37;;;4.03;;
8260;SDS011;64115;50.170;8.242;2023-03-17T14:10:22;5.03;;;4.17;;
8260;SDS011;64115;50.170;8.242;2023-03-17T14:12:53;5.27;;;4.10;;
8260;SDS011;64115;50.170;8.242;2023-03-17T14:15:26;4.83;;;4.17;;
8260;SDS011;64115;50.170;8.242;2023-03-17T14:17:59;4.30;;;3.90;;
8260;SDS011;64115;50.170;8.242;2023-03-17T14:20:30;4.30;;;3.87;;
8260;SDS011;64115;50.170;8.242;2023-03-17T14:22:58;4.87;;;3.77;;
8260;SDS011;64115;50.170;8.242;2023-03-17T14:25:29;4.47;;;4.07;;
8260;SDS011;64115;50.170;8.242;2023-03-17T14:27:57;5.03;;;4.47;;
8260;SDS011;64115;50.170;8.242;2023-03-17T14:30:26;6.37;;;4.67;;
8260;SDS011;64115;50.170;8.242;2023-03-17T14:32:58;5.10;;;4.63;;
8260;SDS011;64115;50.170;8.242;2023-03-17T14:35:30;4.43;;;4.00;;
8260;SDS011;64115;50.170;8.242;2023-03-17T14:37:59;5.80;;;4.43;;
8260;SDS011;64115;50.170;8.242;2023-03-17T14:40:28;5.23;;;4.20;;
8260;SDS011;64115;50.170;8.242;2023-03-17T14:43:01;6.63;;;4.40;;
8260;SDS011;64115;50.170;8.242;2023-03-17T14:45:29;4.60;;;4.20;;
8260;SDS011;64115;50.170;8.242;2023-03-17T14:48:09;5.93;;;4.33;;
8260;SDS011;64115;50.170;8.242;2023-03-17T14:50:46;4.67;;;4.27;;
8260;SDS011;64115;50.170;8.242;2023-03-17T14:53:16;4.50;;;4.10;;
8260;SDS011;64115;50.170;8.242;2023-03-17T14:55:44;6.83;;;4.20;;
8260;SDS011;64115;50.170;8.242;2023-03-17T14:58:17;5.00;;;3.90;;
8260;SDS011;64115;50.170;8.242;2023-03-17T15:00:52;4.37;;;3.97;;
8260;SDS011;64115;50.170;8.242;2023-03-17T15:03:24;5.07;;;4.20;;
8260;SDS011;64115;50.170;8.242;2023-03-17T15:06:05;4.70;;;4.20;;
8260;SDS011;64115;50.170;8.242;2023-03-17T15:08:46;4.57;;;4.03;;
8260;SDS011;64115;50.170;8.242;2023-03-17T15:11:15;4.80;;;4.23;;
8260;SDS011;64115;50.170;8.242;2023-03-17T15:13:45;4.50;;;3.93;;
8260;SDS011;64115;50.170;8.242;2023-03-17T15:16:15;6.13;;;4.20;;
8260;SDS011;64115;50.170;8.242;2023-03-17T15:18:55;6.77;;;4.03;;
8260;SDS011;64115;50.170;8.242;2023-03-17T15:21:31;6.43;;;4.73;;
8260;SDS011;64115;50.170;8.242;2023-03-17T15:24:04;5.53;;;4.03;;
8260;SDS011;64115;50.170;8.242;2023-03-17T15:26:46;6.13;;;4.40;;
8260;SDS011;64115;50.170;8.242;2023-03-17T15:29:13;5.97;;;4.80;;
8260;SDS011;64115;50.170;8.242;2023-03-17T15:31:40;4.50;;;4.10;;
8260;SDS011;64115;50.170;8.242;2023-03-17T15:34:09;4.97;;;4.50;;
8260;SDS011;64115;50.170;8.242;2023-03-17T15:36:39;6.50;;;4.93;;